Time,TemperatureF,DewpointF,PressureIn,WindDirection,WindDirectionDegrees,WindSpeedMPH,WindSpeedGustMPH,Humidity,HourlyPrecipIn,Conditions,Clouds,dailyrainin,SolarRadiationWatts/m^2,SoftwareType,DateUTC
2013-08-19 00:01:00,81.4,65.9,29.77,SSE,157,3.0,4.0,59,0.00,,,0.00,0.0,WUHU216DAVISVP2,2013-08-19 07:01:00,
2013-08-19 00:06:00,81.2,65.7,29.77,SSE,156,0.0,4.0,59,0.00,,,0.00,0.0,WUHU216DAVISVP2,2013-08-19 07:06:00,
2013-08-19 00:11:00,81.1,65.6,29.77,SE,146,4.0,5.0,59,0.00,,,0.00,0.0,WUHU216DAVISVP2,2013-08-19 07:11:00,
2013-08-19 00:16:00,80.9,65.5,29.77,SE,144,1.0,5.0,59,0.00,,,0.00,0.0,WUHU216DAVISVP2,2013-08-19 07:16:00,
2013-08-19 00:21:00,80.8,65.1,29.77,SE,144,0.0,5.0,59,0.00,,,0.00,0.0,WUHU216DAVISVP2,2013-08-19 07:21:00,
2013-08-19 00:26:00,80.7,65.3,29.77,SE,144,1.0,5.0,59,0.00,,,0.00,0.0,WUHU216DAVISVP2,2013-08-19 07:26:00,
2013-08-19 00:31:00,80.6,65.2,29.77,SE,144,1.0,4.0,59,0.00,,,0.00,0.0,WUHU216DAVISVP2,2013-08-19 07:31:00,
2013-08-19 00:36:00,80.6,64.9,29.77,SE,144,1.0,4.0,59,0.00,,,0.00,0.0,WUHU216DAVISVP2,2013-08-19 07:36:00,
2013-08-19 00:41:00,80.5,64.4,29.77,SE,144,1.0,4.0,58,0.00,,,0.00,0.0,WUHU216DAVISVP2,2013-08-19 07:41:00,
2013-08-19 00:46:00,80.4,64.5,29.77,SE,144,0.0,4.0,58,0.00,,,0.00,0.0,WUHU216DAVISVP2,2013-08-19 07:46:00,
2013-08-19 00:51:00,80.3,64.7,29.78,ESE,113,3.0,4.0,59,0.00,,,0.00,0.0,WUHU216DAVISVP2,2013-08-19 07:51:00,
2013-08-19 00:56:00,79.6,65.0,29.78,East,90,1.0,6.0,61,0.00,,,0.00,0.0,WUHU216DAVISVP2,2013-08-19 07:56:00,
2013-08-19 01:01:00,79.3,64.9,29.78,East,92,1.0,6.0,61,0.00,,,0.00,0.0,WUHU216DAVISVP2,2013-08-19 08:01:00,
2013-08-19 01:06:00,79.4,64.5,29.78,SE,132,2.0,6.0,60,0.00,,,0.00,0.0,WUHU216DAVISVP2,2013-08-19 08:06:00,
2013-08-19 01:11:00,79.8,64.7,29.77,SSE,159,0.0,5.0,60,0.00,,,0.00,0.0,WUHU216DAVISVP2,2013-08-19 08:11:00,
2013-08-19 01:16:00,80.2,65.8,29.76,SE,145,0.0,4.0,61,0.00,,,0.00,0.0,WUHU216DAVISVP2,2013-08-19 08:16:00,
2013-08-19 01:21:00,80.0,65.6,29.76,SE,145,0.0,4.0,61,0.00,,,0.00,0.0,WUHU216DAVISVP2,2013-08-19 08:21:00,
2013-08-19 01:26:00,79.9,67.3,29.76,SE,145,2.0,4.0,65,0.00,,,0.00,0.0,WUHU216DAVISVP2,2013-08-19 08:26:00,
2013-08-19 01:31:00,79.6,67.7,29.77,ESE,123,3.0,4.0,67,0.00,,,0.00,0.0,WUHU216DAVISVP2,2013-08-19 08:31:00,
2013-08-19 01:36:00,79.0,68.2,29.76,ESE,123,3.0,4.0,69,0.00,,,0.00,0.0,WUHU216DAVISVP2,2013-08-19 08:36:00,
2013-08-19 01:41:00,78.5,68.1,29.76,ESE,123,0.0,4.0,70,0.00,,,0.00,0.0,WUHU216DAVISVP2,2013-08-19 08:41:00,
2013-08-19 01:46:00,78.0,69.6,29.77,ESE,121,1.0,5.0,75,0.00,,,0.00,0.0,WUHU216DAVISVP2,2013-08-19 08:46:00,
2013-08-19 01:51:00,77.3,68.5,29.76,ESE,121,0.0,5.0,74,0.00,,,0.00,0.0,WUHU216DAVISVP2,2013-08-19 08:51:00,
2013-08-19 01:56:00,77.2,68.1,29.77,SSE,148,6.0,6.0,73,0.00,,,0.00,0.0,WUHU216DAVISVP2,2013-08-19 08:56:00,
2013-08-19 02:01:00,77.8,66.4,29.77,SSE,148,4.0,6.0,68,0.00,,,0.00,0.0,WUHU216DAVISVP2,2013-08-19 09:01:00,
2013-08-19 02:06:00,78.2,66.8,29.76,SSE,153,3.0,6.0,68,0.00,,,0.00,0.0,WUHU216DAVISVP2,2013-08-19 09:06:00,
2013-08-19 02:11:00,78.2,67.0,29.77,SSE,157,2.0,6.0,68,0.00,,,0.00,0.0,WUHU216DAVISVP2,2013-08-19 09:11:00,
2013-08-19 02:16:00,78.1,67.3,29.77,SSE,159,0.0,6.0,69,0.00,,,0.00,0.0,WUHU216DAVISVP2,2013-08-19 09:16:00,
2013-08-19 02:21:00,78.0,67.0,29.77,SSE,160,1.0,6.0,69,0.00,,,0.00,0.0,WUHU216DAVISVP2,2013-08-19 09:21:00,
2013-08-19 02:26:00,77.8,67.2,29.77,SE,144,2.0,6.0,70,0.00,,,0.00,0.0,WUHU216DAVISVP2,2013-08-19 09:26:00,
2013-08-19 02:31:00,77.3,67.4,29.76,SE,144,0.0,4.0,71,0.00,,,0.00,0.0,WUHU216DAVISVP2,2013-08-19 09:31:00,
2013-08-19 02:36:00,76.9,67.8,29.76,SE,144,0.0,4.0,73,0.00,,,0.00,0.0,WUHU216DAVISVP2,2013-08-19 09:36:00,
2013-08-19 02:41:00,76.6,68.2,29.76,SE,144,2.0,4.0,75,0.00,,,0.00,0.0,WUHU216DAVISVP2,2013-08-19 09:41:00,
2013-08-19 02:46:00,76.4,68.1,29.76,SE,144,0.0,3.0,75,0.00,,,0.00,0.0,WUHU216DAVISVP2,2013-08-19 09:46:00,
2013-08-19 02:51:00,76.3,68.0,29.76,SE,144,0.0,2.0,75,0.00,,,0.00,0.0,WUHU216DAVISVP2,2013-08-19 09:51:00,
2013-08-19 02:56:00,76.2,68.2,29.75,SE,144,0.0,2.0,76,0.00,,,0.00,0.0,WUHU216DAVISVP2,2013-08-19 09:56:00,
2013-08-19 03:01:00,76.1,68.5,29.75,SE,144,0.0,2.0,77,0.00,,,0.00,0.0,WUHU216DAVISVP2,2013-08-19 10:01:00,
2013-08-19 03:06:00,76.0,68.4,29.75,SE,144,0.0,0.0,77,0.00,,,0.00,0.0,WUHU216DAVISVP2,2013-08-19 10:06:00,
2013-08-19 03:11:00,75.9,68.7,29.75,SE,144,0.0,0.0,78,0.00,,,0.00,0.0,WUHU216DAVISVP2,2013-08-19 10:11:00,
2013-08-19 03:16:00,75.8,68.4,29.75,SE,144,0.0,0.0,78,0.00,,,0.00,0.0,WUHU216DAVISVP2,2013-08-19 10:16:00,
2013-08-19 03:21:00,75.7,68.7,29.75,SE,144,0.0,0.0,79,0.00,,,0.00,0.0,WUHU216DAVISVP2,2013-08-19 10:21:00,
2013-08-19 03:26:00,75.6,69.1,29.75,SE,144,3.0,3.0,80,0.00,,,0.00,0.0,WUHU216DAVISVP2,2013-08-19 10:26:00,
2013-08-19 03:31:00,75.2,68.0,29.75,ENE,71,2.0,6.0,78,0.00,,,0.00,0.0,WUHU216DAVISVP2,2013-08-19 10:31:00,
2013-08-19 03:36:00,75.0,67.4,29.75,ENE,72,2.0,6.0,77,0.00,,,0.00,0.0,WUHU216DAVISVP2,2013-08-19 10:36:00,
2013-08-19 03:41:00,74.9,67.0,29.75,ENE,72,2.0,6.0,76,0.00,,,0.00,0.0,WUHU216DAVISVP2,2013-08-19 10:41:00,
2013-08-19 03:46:00,75.0,67.1,29.75,ENE,72,0.0,4.0,76,0.00,,,0.00,0.0,WUHU216DAVISVP2,2013-08-19 10:46:00,
2013-08-19 03:51:00,75.1,66.4,29.75,ENE,72,0.0,3.0,74,0.00,,,0.00,0.0,WUHU216DAVISVP2,2013-08-19 10:51:00,
2013-08-19 03:56:00,75.3,66.6,29.75,ENE,72,0.0,3.0,74,0.00,,,0.00,0.0,WUHU216DAVISVP2,2013-08-19 10:56:00,
2013-08-19 04:01:00,75.4,66.7,29.75,ENE,72,0.0,2.0,74,0.00,,,0.00,0.0,WUHU216DAVISVP2,2013-08-19 11:01:00,
2013-08-19 04:06:00,75.5,66.6,29.75,ENE,72,0.0,1.0,74,0.00,,,0.00,0.0,WUHU216DAVISVP2,2013-08-19 11:06:00,
2013-08-19 04:11:00,75.5,66.6,29.75,ENE,72,0.0,1.0,74,0.00,,,0.00,0.0,WUHU216DAVISVP2,2013-08-19 11:11:00,
2013-08-19 04:16:00,75.5,67.6,29.75,ENE,72,0.0,0.0,76,0.00,,,0.00,0.0,WUHU216DAVISVP2,2013-08-19 11:16:00,
2013-08-19 04:21:00,75.4,67.5,29.75,ENE,72,0.0,1.0,76,0.00,,,0.00,0.0,WUHU216DAVISVP2,2013-08-19 11:21:00,
2013-08-19 04:26:00,75.2,67.6,29.75,ENE,72,0.0,1.0,77,0.00,,,0.00,0.0,WUHU216DAVISVP2,2013-08-19 11:26:00,
2013-08-19 04:31:00,75.1,67.5,29.75,ENE,72,0.0,1.0,77,0.00,,,0.00,0.0,WUHU216DAVISVP2,2013-08-19 11:31:00,
2013-08-19 04:36:00,74.9,67.9,29.75,ENE,72,0.0,1.0,79,0.00,,,0.00,0.0,WUHU216DAVISVP2,2013-08-19 11:36:00,
2013-08-19 04:41:00,74.6,67.7,29.75,ENE,72,0.0,1.0,79,0.00,,,0.00,0.0,WUHU216DAVISVP2,2013-08-19 11:41:00,
2013-08-19 04:46:00,74.5,67.6,29.75,ENE,72,0.0,1.0,79,0.00,,,0.00,0.0,WUHU216DAVISVP2,2013-08-19 11:46:00,
2013-08-19 04:51:00,74.6,67.8,29.75,ENE,72,3.0,3.0,79,0.00,,,0.00,0.0,WUHU216DAVISVP2,2013-08-19 11:51:00,
2013-08-19 04:56:00,74.5,67.3,29.76,ENE,72,2.0,3.0,78,0.00,,,0.00,0.0,WUHU216DAVISVP2,2013-08-19 11:56:00,
2013-08-19 05:01:00,74.4,67.6,29.77,ENE,72,0.0,3.0,79,0.00,,,0.00,0.0,WUHU216DAVISVP2,2013-08-19 12:01:00,
2013-08-19 05:06:00,74.5,68.0,29.76,ENE,72,0.0,3.0,80,0.00,,,0.00,0.0,WUHU216DAVISVP2,2013-08-19 12:06:00,
2013-08-19 05:11:00,74.6,67.8,29.76,ENE,72,0.0,2.0,79,0.00,,,0.00,0.0,WUHU216DAVISVP2,2013-08-19 12:11:00,
2013-08-19 05:16:00,74.8,68.0,29.77,ENE,72,0.0,2.0,79,0.00,,,0.00,0.0,WUHU216DAVISVP2,2013-08-19 12:16:00,
2013-08-19 05:21:00,75.0,67.8,29.77,ENE,72,0.0,2.0,78,0.00,,,0.00,0.0,WUHU216DAVISVP2,2013-08-19 12:21:00,
2013-08-19 05:26:00,75.3,68.1,29.78,ENE,71,3.0,4.0,78,0.00,,,0.00,0.0,WUHU216DAVISVP2,2013-08-19 12:26:00,
2013-08-19 05:31:00,75.2,68.0,29.77,NE,45,3.0,5.0,78,0.00,,,0.00,0.0,WUHU216DAVISVP2,2013-08-19 12:31:00,
2013-08-19 05:36:00,74.9,67.7,29.77,NE,45,1.0,5.0,78,0.00,,,0.00,0.0,WUHU216DAVISVP2,2013-08-19 12:36:00,
2013-08-19 05:41:00,74.8,67.6,29.77,NE,45,0.0,5.0,78,0.00,,,0.00,0.0,WUHU216DAVISVP2,2013-08-19 12:41:00,
2013-08-19 05:46:00,74.8,68.0,29.77,NE,45,1.0,5.0,79,0.00,,,0.00,0.0,WUHU216DAVISVP2,2013-08-19 12:46:00,
2013-08-19 05:51:00,74.9,68.3,29.77,NE,45,2.0,3.0,80,0.00,,,0.00,0.0,WUHU216DAVISVP2,2013-08-19 12:51:00,
2013-08-19 05:56:00,75.0,68.4,29.77,NE,45,2.0,3.0,80,0.00,,,0.00,0.0,WUHU216DAVISVP2,2013-08-19 12:56:00,
2013-08-19 06:01:00,75.1,68.5,29.76,NE,45,0.0,2.0,80,0.00,,,0.00,0.0,WUHU216DAVISVP2,2013-08-19 13:01:00,
2013-08-19 06:06:00,75.1,68.6,29.77,NE,45,0.0,2.0,80,0.00,,,0.00,0.0,WUHU216DAVISVP2,2013-08-19 13:06:00,
2013-08-19 06:11:00,75.1,68.6,29.77,NE,45,2.0,2.0,80,0.00,,,0.00,0.0,WUHU216DAVISVP2,2013-08-19 13:11:00,
2013-08-19 06:16:00,75.1,68.6,29.78,NE,45,0.0,2.0,80,0.00,,,0.00,0.0,WUHU216DAVISVP2,2013-08-19 13:16:00,
2013-08-19 06:21:00,75.0,68.5,29.78,NE,42,3.0,3.0,80,0.00,,,0.00,0.0,WUHU216DAVISVP2,2013-08-19 13:21:00,
2013-08-19 06:26:00,74.7,68.2,29.78,North,5,2.0,4.0,80,0.00,,,0.00,0.0,WUHU216DAVISVP2,2013-08-19 13:26:00,
2013-08-19 06:31:00,74.6,68.1,29.78,North,5,0.0,4.0,80,0.00,,,0.00,0.0,WUHU216DAVISVP2,2013-08-19 13:31:00,
2013-08-19 06:36:00,74.5,68.3,29.78,North,5,1.0,4.0,81,0.00,,,0.00,5.0,WUHU216DAVISVP2,2013-08-19 13:36:00,
2013-08-19 06:41:00,74.2,68.3,29.79,North,5,2.0,4.0,82,0.00,,,0.00,5.0,WUHU216DAVISVP2,2013-08-19 13:41:00,
2013-08-19 06:46:00,73.9,68.1,29.79,North,5,1.0,3.0,82,0.00,,,0.00,7.0,WUHU216DAVISVP2,2013-08-19 13:46:00,
2013-08-19 06:51:00,73.7,68.2,29.79,North,5,1.0,3.0,83,0.00,,,0.00,12.0,WUHU216DAVISVP2,2013-08-19 13:51:00,
2013-08-19 06:56:00,73.7,68.3,29.79,North,5,0.0,3.0,83,0.00,,,0.00,18.0,WUHU216DAVISVP2,2013-08-19 13:56:00,
2013-08-19 07:01:00,73.7,68.3,29.78,North,5,0.0,3.0,83,0.00,,,0.00,28.0,WUHU216DAVISVP2,2013-08-19 14:01:00,
2013-08-19 07:06:00,73.8,68.4,29.79,SSW,195,0.0,2.0,83,0.00,,,0.00,56.0,WUHU216DAVISVP2,2013-08-19 14:06:00,
2013-08-19 07:11:00,74.0,68.2,29.79,SSW,195,0.0,1.0,82,0.00,,,0.00,54.0,WUHU216DAVISVP2,2013-08-19 14:11:00,
2013-08-19 07:16:00,74.3,68.5,29.79,SSW,195,1.0,1.0,82,0.00,,,0.00,62.0,WUHU216DAVISVP2,2013-08-19 14:16:00,
2013-08-19 07:21:00,74.7,68.6,29.79,SSW,195,0.0,2.0,81,0.00,,,0.00,67.0,WUHU216DAVISVP2,2013-08-19 14:21:00,
2013-08-19 07:26:00,75.1,68.6,29.79,SSW,195,1.0,2.0,80,0.00,,,0.00,178.0,WUHU216DAVISVP2,2013-08-19 14:26:00,
2013-08-19 07:31:00,75.8,68.6,29.80,SW,217,2.0,3.0,78,0.00,,,0.00,188.0,WUHU216DAVISVP2,2013-08-19 14:31:00,
2013-08-19 07:36:00,76.7,69.1,29.80,West,271,2.0,4.0,77,0.00,,,0.00,193.0,WUHU216DAVISVP2,2013-08-19 14:36:00,
2013-08-19 07:41:00,77.3,69.3,29.80,West,271,0.0,4.0,76,0.00,,,0.00,206.0,WUHU216DAVISVP2,2013-08-19 14:41:00,
2013-08-19 07:46:00,77.6,70.3,29.80,NW,304,0.0,6.0,78,0.00,,,0.00,211.0,WUHU216DAVISVP2,2013-08-19 14:46:00,
2013-08-19 07:51:00,77.7,70.1,29.81,NW,310,2.0,6.0,77,0.00,,,0.00,125.0,WUHU216DAVISVP2,2013-08-19 14:51:00,
2013-08-19 07:56:00,77.7,70.1,29.81,NW,310,4.0,6.0,77,0.00,,,0.00,232.0,WUHU216DAVISVP2,2013-08-19 14:56:00,
2013-08-19 08:01:00,77.7,70.1,29.81,NW,310,0.0,6.0,77,0.00,,,0.00,246.0,WUHU216DAVISVP2,2013-08-19 15:01:00,
2013-08-19 08:06:00,77.8,69.4,29.81,NW,310,1.0,5.0,75,0.00,,,0.00,262.0,WUHU216DAVISVP2,2013-08-19 15:06:00,
2013-08-19 08:11:00,78.0,70.0,29.81,NW,306,3.0,4.0,76,0.00,,,0.00,232.0,WUHU216DAVISVP2,2013-08-19 15:11:00,
2013-08-19 08:16:00,78.2,69.0,29.81,NW,306,2.0,5.0,73,0.00,,,0.00,292.0,WUHU216DAVISVP2,2013-08-19 15:16:00,
2013-08-19 08:21:00,78.7,69.5,29.81,NW,306,1.0,5.0,73,0.00,,,0.00,304.0,WUHU216DAVISVP2,2013-08-19 15:21:00,
2013-08-19 08:26:00,79.4,69.4,29.81,NW,306,1.0,5.0,71,0.00,,,0.00,320.0,WUHU216DAVISVP2,2013-08-19 15:26:00,
2013-08-19 08:31:00,80.3,69.0,29.80,NW,306,3.0,4.0,68,0.00,,,0.00,336.0,WUHU216DAVISVP2,2013-08-19 15:31:00,
2013-08-19 08:36:00,80.5,69.2,29.80,NW,306,3.0,4.0,68,0.00,,,0.00,350.0,WUHU216DAVISVP2,2013-08-19 15:36:00,
2013-08-19 08:41:00,80.8,68.6,29.80,NW,306,3.0,4.0,66,0.00,,,0.00,359.0,WUHU216DAVISVP2,2013-08-19 15:41:00,
2013-08-19 08:46:00,81.2,69.0,29.80,NW,306,4.0,4.0,66,0.00,,,0.00,373.0,WUHU216DAVISVP2,2013-08-19 15:46:00,
2013-08-19 08:51:00,81.5,68.9,29.80,NW,306,2.0,4.0,65,0.00,,,0.00,388.0,WUHU216DAVISVP2,2013-08-19 15:51:00,
2013-08-19 08:56:00,82.0,69.3,29.80,NW,306,2.0,4.0,65,0.00,,,0.00,406.0,WUHU216DAVISVP2,2013-08-19 15:56:00,
2013-08-19 09:01:00,82.9,69.3,29.80,NW,306,2.0,4.0,63,0.00,,,0.00,429.0,WUHU216DAVISVP2,2013-08-19 16:01:00,
2013-08-19 09:06:00,83.6,69.5,29.81,NW,306,2.0,4.0,62,0.00,,,0.00,439.0,WUHU216DAVISVP2,2013-08-19 16:06:00,
2013-08-19 09:11:00,83.8,68.7,29.80,NW,306,4.0,4.0,60,0.00,,,0.00,452.0,WUHU216DAVISVP2,2013-08-19 16:11:00,
2013-08-19 09:16:00,83.8,68.4,29.80,NW,306,2.0,4.0,60,0.00,,,0.00,466.0,WUHU216DAVISVP2,2013-08-19 16:16:00,
2013-08-19 09:21:00,84.3,69.4,29.81,NW,306,0.0,4.0,61,0.00,,,0.00,476.0,WUHU216DAVISVP2,2013-08-19 16:21:00,
2013-08-19 09:26:00,85.0,68.1,29.81,NW,306,0.0,4.0,57,0.00,,,0.00,492.0,WUHU216DAVISVP2,2013-08-19 16:26:00,
2013-08-19 09:31:00,85.6,68.1,29.81,NW,306,2.0,4.0,56,0.00,,,0.00,508.0,WUHU216DAVISVP2,2013-08-19 16:31:00,
2013-08-19 09:36:00,86.1,69.1,29.80,NW,311,4.0,4.0,57,0.00,,,0.00,520.0,WUHU216DAVISVP2,2013-08-19 16:36:00,
2013-08-19 09:41:00,86.8,67.3,29.80,NNW,344,2.0,7.0,52,0.00,,,0.00,534.0,WUHU216DAVISVP2,2013-08-19 16:41:00,
2013-08-19 09:46:00,87.5,68.5,29.80,NNW,345,4.0,7.0,53,0.00,,,0.00,545.0,WUHU216DAVISVP2,2013-08-19 16:46:00,
2013-08-19 09:51:00,88.0,69.5,29.80,North,351,2.0,7.0,54,0.00,,,0.00,563.0,WUHU216DAVISVP2,2013-08-19 16:51:00,
2013-08-19 09:56:00,88.4,68.7,29.80,North,5,5.0,7.0,52,0.00,,,0.00,573.0,WUHU216DAVISVP2,2013-08-19 16:56:00,
2013-08-19 10:01:00,88.7,69.0,29.80,NW,314,4.0,6.0,52,0.00,,,0.00,589.0,WUHU216DAVISVP2,2013-08-19 17:01:00,
2013-08-19 10:06:00,88.6,69.5,29.80,WNW,302,2.0,6.0,53,0.00,,,0.00,601.0,WUHU216DAVISVP2,2013-08-19 17:06:00,
2013-08-19 10:11:00,88.7,68.4,29.80,NW,308,2.0,6.0,51,0.00,,,0.00,617.0,WUHU216DAVISVP2,2013-08-19 17:11:00,
2013-08-19 10:16:00,89.2,69.5,29.80,WNW,302,4.0,6.0,52,0.00,,,0.00,629.0,WUHU216DAVISVP2,2013-08-19 17:16:00,
2013-08-19 10:21:00,89.4,68.5,29.80,WNW,291,3.0,6.0,50,0.00,,,0.00,643.0,WUHU216DAVISVP2,2013-08-19 17:21:00,
2013-08-19 10:26:00,89.6,68.5,29.80,West,259,3.0,6.0,50,0.00,,,0.00,654.0,WUHU216DAVISVP2,2013-08-19 17:26:00,
2013-08-19 10:31:00,90.2,67.9,29.80,NW,307,5.0,6.0,48,0.00,,,0.00,664.0,WUHU216DAVISVP2,2013-08-19 17:31:00,
2013-08-19 10:36:00,90.4,69.2,29.80,WNW,292,6.0,6.0,50,0.00,,,0.00,670.0,WUHU216DAVISVP2,2013-08-19 17:36:00,
2013-08-19 10:41:00,90.7,67.7,29.80,WNW,301,5.0,8.0,47,0.00,,,0.00,680.0,WUHU216DAVISVP2,2013-08-19 17:41:00,
2013-08-19 10:46:00,91.0,67.5,29.79,NW,313,7.0,8.0,46,0.00,,,0.00,694.0,WUHU216DAVISVP2,2013-08-19 17:46:00,
2013-08-19 10:51:00,91.6,67.3,29.79,WNW,294,6.0,8.0,45,0.00,,,0.00,705.0,WUHU216DAVISVP2,2013-08-19 17:51:00,
2013-08-19 10:56:00,91.9,67.6,29.79,WNW,302,1.0,8.0,45,0.00,,,0.00,714.0,WUHU216DAVISVP2,2013-08-19 17:56:00,
2013-08-19 11:01:00,92.5,70.1,29.79,WNW,297,5.0,7.0,48,0.00,,,0.00,722.0,WUHU216DAVISVP2,2013-08-19 18:01:00,
2013-08-19 11:06:00,92.9,69.8,29.79,WNW,299,4.0,7.0,47,0.00,,,0.00,728.0,WUHU216DAVISVP2,2013-08-19 18:06:00,
2013-08-19 11:11:00,93.3,68.2,29.79,NW,305,4.0,8.0,44,0.00,,,0.00,737.0,WUHU216DAVISVP2,2013-08-19 18:11:00,
2013-08-19 11:16:00,93.6,69.2,29.79,NW,323,5.0,8.0,45,0.00,,,0.00,745.0,WUHU216DAVISVP2,2013-08-19 18:16:00,
2013-08-19 11:21:00,93.6,70.5,29.79,NW,313,3.0,8.0,47,0.00,,,0.00,752.0,WUHU216DAVISVP2,2013-08-19 18:21:00,
2013-08-19 11:26:00,94.3,69.8,29.79,NW,318,5.0,8.0,45,0.00,,,0.00,761.0,WUHU216DAVISVP2,2013-08-19 18:26:00,
2013-08-19 11:31:00,94.2,67.6,29.78,WNW,286,3.0,8.0,42,0.00,,,0.00,770.0,WUHU216DAVISVP2,2013-08-19 18:31:00,
2013-08-19 11:36:00,94.3,69.1,29.78,NW,312,3.0,8.0,44,0.00,,,0.00,777.0,WUHU216DAVISVP2,2013-08-19 18:36:00,
2013-08-19 11:41:00,94.7,70.8,29.78,NNW,333,6.0,8.0,46,0.00,,,0.00,780.0,WUHU216DAVISVP2,2013-08-19 18:41:00,
2013-08-19 11:46:00,95.1,70.4,29.78,NW,323,5.0,8.0,45,0.00,,,0.00,786.0,WUHU216DAVISVP2,2013-08-19 18:46:00,
2013-08-19 11:51:00,95.2,69.8,29.78,NW,313,5.0,8.0,44,0.00,,,0.00,791.0,WUHU216DAVISVP2,2013-08-19 18:51:00,
2013-08-19 11:56:00,95.6,68.8,29.78,NW,317,4.0,9.0,42,0.00,,,0.00,800.0,WUHU216DAVISVP2,2013-08-19 18:56:00,
2013-08-19 12:01:00,95.7,69.0,29.78,NW,306,5.0,9.0,42,0.00,,,0.00,803.0,WUHU216DAVISVP2,2013-08-19 19:01:00,
2013-08-19 12:06:00,96.3,69.5,29.77,WNW,299,6.0,9.0,42,0.00,,,0.00,810.0,WUHU216DAVISVP2,2013-08-19 19:06:00,
2013-08-19 12:11:00,96.3,69.5,29.77,NW,314,6.0,9.0,42,0.00,,,0.00,810.0,WUHU216DAVISVP2,2013-08-19 19:11:00,
2013-08-19 12:16:00,96.0,67.1,29.77,NNW,334,6.0,10.0,39,0.00,,,0.00,817.0,WUHU216DAVISVP2,2013-08-19 19:16:00,
2013-08-19 12:21:00,96.4,66.6,29.77,WNW,286,6.0,10.0,38,0.00,,,0.00,821.0,WUHU216DAVISVP2,2013-08-19 19:21:00,
2013-08-19 12:26:00,97.2,64.9,29.77,NW,309,6.0,10.0,35,0.00,,,0.00,821.0,WUHU216DAVISVP2,2013-08-19 19:26:00,
2013-08-19 12:31:00,97.6,65.3,29.77,WNW,294,9.0,10.0,35,0.00,,,0.00,826.0,WUHU216DAVISVP2,2013-08-19 19:31:00,
2013-08-19 12:36:00,98.0,66.5,29.77,NW,314,8.0,10.0,36,0.00,,,0.00,824.0,WUHU216DAVISVP2,2013-08-19 19:36:00,
2013-08-19 12:41:00,98.3,65.9,29.77,West,278,7.0,14.0,35,0.00,,,0.00,824.0,WUHU216DAVISVP2,2013-08-19 19:41:00,
2013-08-19 12:46:00,98.5,66.1,29.77,WNW,292,5.0,14.0,35,0.00,,,0.00,831.0,WUHU216DAVISVP2,2013-08-19 19:46:00,
2013-08-19 12:51:00,98.8,64.6,29.76,WNW,298,5.0,14.0,33,0.00,,,0.00,831.0,WUHU216DAVISVP2,2013-08-19 19:51:00,
2013-08-19 12:56:00,99.1,65.8,29.76,WNW,294,7.0,14.0,34,0.00,,,0.00,835.0,WUHU216DAVISVP2,2013-08-19 19:56:00,
2013-08-19 13:01:00,98.9,64.7,29.76,NW,326,6.0,12.0,33,0.00,,,0.00,837.0,WUHU216DAVISVP2,2013-08-19 20:01:00,
2013-08-19 13:06:00,99.0,63.0,29.76,NW,308,6.0,12.0,31,0.00,,,0.00,837.0,WUHU216DAVISVP2,2013-08-19 20:06:00,
2013-08-19 13:11:00,99.2,64.1,29.75,NW,310,6.0,12.0,32,0.00,,,0.00,831.0,WUHU216DAVISVP2,2013-08-19 20:11:00,
2013-08-19 13:16:00,99.3,64.2,29.75,NW,310,5.0,13.0,32,0.00,,,0.00,831.0,WUHU216DAVISVP2,2013-08-19 20:16:00,
2013-08-19 13:21:00,99.5,64.4,29.75,West,272,7.0,13.0,32,0.00,,,0.00,830.0,WUHU216DAVISVP2,2013-08-19 20:21:00,
2013-08-19 13:26:00,99.6,64.4,29.75,NW,319,6.0,13.0,32,0.00,,,0.00,823.0,WUHU216DAVISVP2,2013-08-19 20:26:00,
2013-08-19 13:31:00,100.2,65.0,29.75,NW,317,8.0,12.0,32,0.00,,,0.00,814.0,WUHU216DAVISVP2,2013-08-19 20:31:00,
2013-08-19 13:36:00,100.4,65.1,29.74,NW,319,7.0,12.0,32,0.00,,,0.00,814.0,WUHU216DAVISVP2,2013-08-19 20:36:00,
2013-08-19 13:41:00,99.6,64.4,29.74,WNW,300,6.0,15.0,32,0.00,,,0.00,814.0,WUHU216DAVISVP2,2013-08-19 20:41:00,
2013-08-19 13:46:00,99.5,66.1,29.74,WNW,300,5.0,15.0,34,0.00,,,0.00,798.0,WUHU216DAVISVP2,2013-08-19 20:46:00,
2013-08-19 13:51:00,99.4,65.2,29.74,West,281,5.0,15.0,33,0.00,,,0.00,800.0,WUHU216DAVISVP2,2013-08-19 20:51:00,
2013-08-19 13:56:00,99.9,64.8,29.73,NW,305,6.0,15.0,32,0.00,,,0.00,802.0,WUHU216DAVISVP2,2013-08-19 20:56:00,
2013-08-19 14:01:00,100.3,65.1,29.73,West,266,6.0,13.0,32,0.00,,,0.00,791.0,WUHU216DAVISVP2,2013-08-19 21:01:00,
2013-08-19 14:06:00,99.7,64.5,29.73,WNW,289,5.0,15.0,32,0.00,,,0.00,777.0,WUHU216DAVISVP2,2013-08-19 21:06:00,
2013-08-19 14:11:00,100.2,64.1,29.73,WNW,298,8.0,15.0,31,0.00,,,0.00,773.0,WUHU216DAVISVP2,2013-08-19 21:11:00,
2013-08-19 14:16:00,99.9,64.7,29.73,WNW,296,6.0,15.0,32,0.00,,,0.00,770.0,WUHU216DAVISVP2,2013-08-19 21:16:00,
2013-08-19 14:21:00,100.5,64.3,29.72,WNW,297,10.0,15.0,31,0.00,,,0.00,765.0,WUHU216DAVISVP2,2013-08-19 21:21:00,
2013-08-19 14:26:00,100.5,64.3,29.72,West,270,8.0,14.0,31,0.00,,,0.00,758.0,WUHU216DAVISVP2,2013-08-19 21:26:00,
2013-08-19 14:31:00,100.7,64.5,29.72,NW,310,8.0,14.0,31,0.00,,,0.00,756.0,WUHU216DAVISVP2,2013-08-19 21:31:00,
2013-08-19 14:36:00,100.6,63.5,29.72,WNW,292,6.0,14.0,30,0.00,,,0.00,754.0,WUHU216DAVISVP2,2013-08-19 21:36:00,
2013-08-19 14:41:00,100.5,64.3,29.71,WNW,301,6.0,14.0,31,0.00,,,0.00,745.0,WUHU216DAVISVP2,2013-08-19 21:41:00,
2013-08-19 14:46:00,101.1,63.9,29.72,WNW,296,11.0,14.0,30,0.00,,,0.00,740.0,WUHU216DAVISVP2,2013-08-19 21:46:00,
2013-08-19 14:51:00,101.3,64.1,29.71,WNW,298,5.0,14.0,30,0.00,,,0.00,735.0,WUHU216DAVISVP2,2013-08-19 21:51:00,
2013-08-19 14:56:00,101.1,63.9,29.71,West,263,9.0,13.0,30,0.00,,,0.00,726.0,WUHU216DAVISVP2,2013-08-19 21:56:00,
2013-08-19 15:01:00,101.1,62.9,29.71,West,267,7.0,14.0,29,0.00,,,0.00,721.0,WUHU216DAVISVP2,2013-08-19 22:01:00,
2013-08-19 15:06:00,101.2,63.0,29.70,WNW,285,5.0,14.0,29,0.00,,,0.00,717.0,WUHU216DAVISVP2,2013-08-19 22:06:00,
2013-08-19 15:11:00,101.4,63.2,29.70,NW,308,5.0,14.0,29,0.00,,,0.00,705.0,WUHU216DAVISVP2,2013-08-19 22:11:00,
2013-08-19 15:16:00,101.9,63.7,29.70,WNW,287,4.0,14.0,29,0.00,,,0.00,694.0,WUHU216DAVISVP2,2013-08-19 22:16:00,
2013-08-19 15:21:00,102.1,62.8,29.70,NW,308,3.0,13.0,28,0.00,,,0.00,689.0,WUHU216DAVISVP2,2013-08-19 22:21:00,
2013-08-19 15:26:00,102.0,62.7,29.70,WNW,289,8.0,11.0,28,0.00,,,0.00,680.0,WUHU216DAVISVP2,2013-08-19 22:26:00,
2013-08-19 15:31:00,102.1,62.8,29.70,NW,319,3.0,11.0,28,0.00,,,0.00,670.0,WUHU216DAVISVP2,2013-08-19 22:31:00,
2013-08-19 15:36:00,102.5,64.1,29.70,NNW,338,4.0,11.0,29,0.00,,,0.00,670.0,WUHU216DAVISVP2,2013-08-19 22:36:00,
2013-08-19 15:41:00,102.9,62.5,29.70,NW,320,4.0,11.0,27,0.00,,,0.00,673.0,WUHU216DAVISVP2,2013-08-19 22:41:00,
2013-08-19 15:46:00,102.8,63.4,29.70,NW,304,2.0,10.0,28,0.00,,,0.00,696.0,WUHU216DAVISVP2,2013-08-19 22:46:00,
2013-08-19 15:51:00,103.3,62.8,29.70,West,260,5.0,10.0,27,0.00,,,0.00,705.0,WUHU216DAVISVP2,2013-08-19 22:51:00,
2013-08-19 15:56:00,103.9,63.3,29.69,West,269,2.0,10.0,27,0.00,,,0.00,689.0,WUHU216DAVISVP2,2013-08-19 22:56:00,
2013-08-19 16:01:00,104.5,62.8,29.69,WNW,299,4.0,9.0,26,0.00,,,0.00,691.0,WUHU216DAVISVP2,2013-08-19 23:01:00,
2013-08-19 16:06:00,104.4,62.7,29.69,NW,311,6.0,12.0,26,0.00,,,0.00,686.0,WUHU216DAVISVP2,2013-08-19 23:06:00,
2013-08-19 16:11:00,104.3,62.6,29.69,WNW,293,5.0,12.0,26,0.00,,,0.00,710.0,WUHU216DAVISVP2,2013-08-19 23:11:00,
2013-08-19 16:16:00,103.6,62.0,29.69,WSW,255,4.0,12.0,26,0.00,,,0.00,707.0,WUHU216DAVISVP2,2013-08-19 23:16:00,
2013-08-19 16:21:00,103.3,61.7,29.69,WNW,288,5.0,12.0,26,0.00,,,0.00,255.0,WUHU216DAVISVP2,2013-08-19 23:21:00,
2013-08-19 16:26:00,103.2,62.7,29.69,NW,320,2.0,11.0,27,0.00,,,0.00,552.0,WUHU216DAVISVP2,2013-08-19 23:26:00,
2013-08-19 16:31:00,104.1,63.5,29.69,NW,323,5.0,11.0,27,0.00,,,0.00,621.0,WUHU216DAVISVP2,2013-08-19 23:31:00,
2013-08-19 16:36:00,104.3,61.5,29.69,West,281,1.0,8.0,25,0.00,,,0.00,626.0,WUHU216DAVISVP2,2013-08-19 23:36:00,
2013-08-19 16:41:00,104.8,63.0,29.69,NW,306,5.0,8.0,26,0.00,,,0.00,605.0,WUHU216DAVISVP2,2013-08-19 23:41:00,
2013-08-19 16:46:00,104.7,62.9,29.69,WSW,256,4.0,8.0,26,0.00,,,0.00,566.0,WUHU216DAVISVP2,2013-08-19 23:46:00,
2013-08-19 16:51:00,104.2,62.5,29.69,NW,306,4.0,8.0,26,0.00,,,0.00,445.0,WUHU216DAVISVP2,2013-08-19 23:51:00,
2013-08-19 16:56:00,103.9,62.3,29.69,NNW,337,5.0,8.0,26,0.00,,,0.00,292.0,WUHU216DAVISVP2,2013-08-19 23:56:00,
2013-08-19 17:01:00,104.0,62.3,29.69,WNW,297,1.0,8.0,26,0.00,,,0.00,533.0,WUHU216DAVISVP2,2013-08-20 00:01:00,
2013-08-19 17:06:00,104.5,62.8,29.68,WNW,298,5.0,9.0,26,0.00,,,0.00,540.0,WUHU216DAVISVP2,2013-08-20 00:06:00,
2013-08-19 17:11:00,104.6,62.8,29.68,WNW,289,5.0,9.0,26,0.00,,,0.00,274.0,WUHU216DAVISVP2,2013-08-20 00:11:00,
2013-08-19 17:16:00,104.2,62.5,29.68,WNW,296,7.0,9.0,26,0.00,,,0.00,241.0,WUHU216DAVISVP2,2013-08-20 00:16:00,
2013-08-19 17:21:00,103.6,62.0,29.68,WNW,285,8.0,9.0,26,0.00,,,0.00,207.0,WUHU216DAVISVP2,2013-08-20 00:21:00,
2013-08-19 17:26:00,103.1,61.6,29.68,WNW,289,5.0,9.0,26,0.00,,,0.00,172.0,WUHU216DAVISVP2,2013-08-20 00:26:00,
2013-08-19 17:31:00,103.0,62.6,29.68,WNW,299,2.0,9.0,27,0.00,,,0.00,137.0,WUHU216DAVISVP2,2013-08-20 00:31:00,
2013-08-19 17:36:00,102.9,62.5,29.68,NW,306,3.0,8.0,27,0.00,,,0.00,105.0,WUHU216DAVISVP2,2013-08-20 00:36:00,
2013-08-19 17:41:00,102.6,65.2,29.68,WNW,291,4.0,8.0,30,0.00,,,0.00,74.0,WUHU216DAVISVP2,2013-08-20 00:41:00,
2013-08-19 17:46:00,102.2,63.9,29.68,WNW,301,3.0,8.0,29,0.00,,,0.00,54.0,WUHU216DAVISVP2,2013-08-20 00:46:00,
2013-08-19 17:51:00,101.8,64.5,29.68,WNW,295,3.0,7.0,30,0.00,,,0.00,35.0,WUHU216DAVISVP2,2013-08-20 00:51:00,
2013-08-19 17:56:00,101.6,63.4,29.68,WNW,296,4.0,6.0,29,0.00,,,0.00,30.0,WUHU216DAVISVP2,2013-08-20 00:56:00,
2013-08-19 18:01:00,101.2,65.9,29.68,WNW,293,3.0,5.0,32,0.00,,,0.00,28.0,WUHU216DAVISVP2,2013-08-20 01:01:00,
2013-08-19 18:06:00,100.5,67.0,29.68,WNW,294,2.0,5.0,34,0.00,,,0.00,30.0,WUHU216DAVISVP2,2013-08-20 01:06:00,
2013-08-19 18:11:00,99.6,66.2,29.68,WNW,288,4.0,6.0,34,0.00,,,0.00,30.0,WUHU216DAVISVP2,2013-08-20 01:11:00,
2013-08-19 18:16:00,98.9,66.4,29.68,WNW,286,3.0,6.0,35,0.00,,,0.00,32.0,WUHU216DAVISVP2,2013-08-20 01:16:00,
2013-08-19 18:21:00,98.3,67.5,29.68,WNW,286,3.0,6.0,37,0.00,,,0.00,33.0,WUHU216DAVISVP2,2013-08-20 01:21:00,
2013-08-19 18:26:00,98.0,68.8,29.68,WNW,286,0.0,6.0,39,0.00,,,0.00,32.0,WUHU216DAVISVP2,2013-08-20 01:26:00,
2013-08-19 18:31:00,97.8,68.7,29.68,WNW,286,1.0,5.0,39,0.00,,,0.00,30.0,WUHU216DAVISVP2,2013-08-20 01:31:00,
2013-08-19 18:36:00,97.6,67.7,29.67,WNW,286,1.0,4.0,38,0.00,,,0.00,25.0,WUHU216DAVISVP2,2013-08-20 01:36:00,
2013-08-19 18:41:00,97.4,68.3,29.68,WNW,286,1.0,4.0,39,0.00,,,0.00,21.0,WUHU216DAVISVP2,2013-08-20 01:41:00,
2013-08-19 18:46:00,97.3,68.2,29.68,WNW,286,0.0,4.0,39,0.00,,,0.00,18.0,WUHU216DAVISVP2,2013-08-20 01:46:00,
2013-08-19 18:51:00,97.2,68.1,29.68,WNW,286,0.0,4.0,39,0.00,,,0.00,14.0,WUHU216DAVISVP2,2013-08-20 01:51:00,
2013-08-19 18:56:00,96.6,69.8,29.69,East,92,6.0,7.0,42,0.00,,,0.00,12.0,WUHU216DAVISVP2,2013-08-20 01:56:00,
2013-08-19 19:01:00,95.3,67.9,29.69,East,86,5.0,8.0,41,0.00,,,0.00,11.0,WUHU216DAVISVP2,2013-08-20 02:01:00,
2013-08-19 19:03:00,95.1,68.4,29.69,East,86,3.0,8.0,42,0.00,,,0.00,9.0,WUHU216DAVISVP2,2013-08-20 02:03:00,
2013-08-19 19:04:00,95.0,68.3,29.69,East,85,5.0,8.0,42,0.00,,,0.00,9.0,WUHU216DAVISVP2,2013-08-20 02:04:00,
2013-08-19 19:05:00,94.9,68.2,29.69,East,85,5.0,8.0,42,0.00,,,0.00,9.0,WUHU216DAVISVP2,2013-08-20 02:05:00,
2013-08-19 19:06:00,94.9,68.3,29.69,East,84,2.0,8.0,42,0.00,,,0.00,9.0,WUHU216DAVISVP2,2013-08-20 02:06:00,
2013-08-19 19:07:00,94.9,68.3,29.69,East,84,5.0,8.0,42,0.00,,,0.00,9.0,WUHU216DAVISVP2,2013-08-20 02:07:00,
2013-08-19 19:08:00,94.9,67.6,29.69,East,85,3.0,8.0,41,0.00,,,0.00,7.0,WUHU216DAVISVP2,2013-08-20 02:08:00,
2013-08-19 19:09:00,95.0,66.9,29.69,East,85,3.0,8.0,40,0.00,,,0.00,7.0,WUHU216DAVISVP2,2013-08-20 02:09:00,
2013-08-19 19:10:00,95.1,67.0,29.69,East,85,0.0,8.0,40,0.00,,,0.00,7.0,WUHU216DAVISVP2,2013-08-20 02:10:00,
2013-08-19 19:11:00,95.1,67.0,29.69,East,85,2.0,8.0,40,0.00,,,0.00,7.0,WUHU216DAVISVP2,2013-08-20 02:11:00,
2013-08-19 19:12:00,95.2,67.1,29.69,East,85,0.0,8.0,40,0.00,,,0.00,7.0,WUHU216DAVISVP2,2013-08-20 02:12:00,
2013-08-19 19:13:00,95.3,67.2,29.69,East,85,0.0,8.0,40,0.00,,,0.00,7.0,WUHU216DAVISVP2,2013-08-20 02:13:00,
2013-08-19 19:14:00,95.3,67.9,29.69,East,85,0.0,8.0,41,0.00,,,0.00,7.0,WUHU216DAVISVP2,2013-08-20 02:14:00,
2013-08-19 19:15:00,95.3,67.2,29.70,East,85,0.0,8.0,40,0.00,,,0.00,7.0,WUHU216DAVISVP2,2013-08-20 02:15:00,
2013-08-19 19:16:00,95.4,67.3,29.70,East,85,0.0,7.0,40,0.00,,,0.00,7.0,WUHU216DAVISVP2,2013-08-20 02:16:00,
2013-08-19 19:17:00,95.4,67.3,29.70,East,85,0.0,6.0,40,0.00,,,0.00,7.0,WUHU216DAVISVP2,2013-08-20 02:17:00,
2013-08-19 19:18:00,95.5,67.4,29.70,East,85,1.0,6.0,40,0.00,,,0.00,7.0,WUHU216DAVISVP2,2013-08-20 02:18:00,
2013-08-19 19:19:00,95.5,67.4,29.70,East,85,0.0,6.0,40,0.00,,,0.00,5.0,WUHU216DAVISVP2,2013-08-20 02:19:00,
2013-08-19 19:20:00,95.5,67.3,29.70,East,85,0.0,6.0,40,0.00,,,0.00,5.0,WUHU216DAVISVP2,2013-08-20 02:20:00,
2013-08-19 19:21:00,95.5,67.4,29.70,East,85,0.0,6.0,40,0.00,,,0.00,5.0,WUHU216DAVISVP2,2013-08-20 02:21:00,
2013-08-19 19:22:00,95.6,67.4,29.69,East,85,0.0,6.0,40,0.00,,,0.00,5.0,WUHU216DAVISVP2,2013-08-20 02:22:00,
2013-08-19 19:23:00,95.6,67.4,29.69,East,85,0.0,6.0,40,0.00,,,0.00,5.0,WUHU216DAVISVP2,2013-08-20 02:23:00,
2013-08-19 19:24:00,95.6,67.4,29.69,East,85,0.0,6.0,40,0.00,,,0.00,5.0,WUHU216DAVISVP2,2013-08-20 02:24:00,
2013-08-19 19:25:00,95.6,68.8,29.70,East,85,0.0,5.0,42,0.00,,,0.00,5.0,WUHU216DAVISVP2,2013-08-20 02:25:00,
2013-08-19 19:26:00,95.6,69.5,29.69,East,85,0.0,5.0,43,0.00,,,0.00,5.0,WUHU216DAVISVP2,2013-08-20 02:26:00,
2013-08-19 19:27:00,95.5,69.5,29.70,East,85,0.0,3.0,43,0.00,,,0.00,0.0,WUHU216DAVISVP2,2013-08-20 02:27:00,
2013-08-19 19:28:00,95.4,68.7,29.70,East,85,0.0,3.0,42,0.00,,,0.00,0.0,WUHU216DAVISVP2,2013-08-20 02:28:00,
2013-08-19 19:29:00,95.4,68.0,29.70,East,85,0.0,2.0,41,0.00,,,0.00,0.0,WUHU216DAVISVP2,2013-08-20 02:29:00,
2013-08-19 19:30:00,95.3,68.6,29.70,East,85,0.0,2.0,42,0.00,,,0.00,0.0,WUHU216DAVISVP2,2013-08-20 02:30:00,
2013-08-19 19:31:00,95.2,67.8,29.70,East,85,0.0,1.0,41,0.00,,,0.00,0.0,WUHU216DAVISVP2,2013-08-20 02:31:00,
2013-08-19 19:32:00,95.1,67.7,29.70,East,85,0.0,1.0,41,0.00,,,0.00,0.0,WUHU216DAVISVP2,2013-08-20 02:32:00,
2013-08-19 19:33:00,95.0,67.6,29.70,East,85,0.0,1.0,41,0.00,,,0.00,0.0,WUHU216DAVISVP2,2013-08-20 02:33:00,
2013-08-19 19:34:00,94.9,67.6,29.71,East,85,0.0,1.0,41,0.00,,,0.00,0.0,WUHU216DAVISVP2,2013-08-20 02:34:00,
2013-08-19 19:35:00,94.9,67.6,29.71,East,85,0.0,1.0,41,0.00,,,0.00,0.0,WUHU216DAVISVP2,2013-08-20 02:35:00,
2013-08-19 19:36:00,94.8,67.5,29.71,East,85,0.0,1.0,41,0.00,,,0.00,0.0,WUHU216DAVISVP2,2013-08-20 02:36:00,
2013-08-19 19:37:00,94.7,67.4,29.71,East,85,0.0,1.0,41,0.00,,,0.00,0.0,WUHU216DAVISVP2,2013-08-20 02:37:00,
2013-08-19 19:38:00,94.7,66.6,29.71,East,85,0.0,1.0,40,0.00,,,0.00,0.0,WUHU216DAVISVP2,2013-08-20 02:38:00,
2013-08-19 19:39:00,94.6,67.3,29.71,East,85,0.0,1.0,41,0.00,,,0.00,0.0,WUHU216DAVISVP2,2013-08-20 02:39:00,
2013-08-19 19:50:00,94.5,66.4,29.71,East,90,0.0,1.0,40,0.00,,,0.00,0.0,WUHU216DAVISVP2,2013-08-20 02:50:00,
2013-08-19 20:00:00,94.6,64.3,29.71,North,0,0.0,1.0,37,0.00,,,0.00,0.0,WUHU216DAVISVP2,2013-08-20 03:00:00,
2013-08-19 20:10:00,94.4,64.9,29.72,East,90,1.0,2.0,38,0.00,,,0.00,0.0,WUHU216DAVISVP2,2013-08-20 03:10:00,
2013-08-19 20:20:00,95.6,61.9,29.71,South,180,2.0,6.0,33,0.00,,,0.00,0.0,WUHU216DAVISVP2,2013-08-20 03:20:00,
2013-08-19 20:30:00,96.0,63.1,29.72,South,180,2.0,8.0,34,0.00,,,0.00,0.0,WUHU216DAVISVP2,2013-08-20 03:30:00,
2013-08-19 20:40:00,94.6,58.4,29.73,East,90,7.0,15.0,30,0.00,,,0.00,0.0,WUHU216DAVISVP2,2013-08-20 03:40:00,
2013-08-19 20:50:00,94.5,56.4,29.73,East,90,12.0,21.0,28,0.00,,,0.00,0.0,WUHU216DAVISVP2,2013-08-20 03:50:00,
2013-08-19 21:00:00,93.3,57.2,29.74,East,90,8.0,21.0,30,0.00,,,0.00,0.0,WUHU216DAVISVP2,2013-08-20 04:00:00,
2013-08-19 21:10:00,92.0,57.0,29.74,East,90,6.0,15.0,31,0.00,,,0.00,0.0,WUHU216DAVISVP2,2013-08-20 04:10:00,
2013-08-19 21:20:00,91.5,57.5,29.73,ESE,113,5.0,11.0,32,0.00,,,0.00,0.0,WUHU216DAVISVP2,2013-08-20 04:20:00,
2013-08-19 21:30:00,91.0,57.9,29.73,ESE,113,2.0,9.0,33,0.00,,,0.00,0.0,WUHU216DAVISVP2,2013-08-20 04:30:00,
2013-08-19 21:40:00,90.5,57.5,29.72,ESE,113,0.0,5.0,33,0.00,,,0.00,0.0,WUHU216DAVISVP2,2013-08-20 04:40:00,
2013-08-19 21:50:00,90.0,58.7,29.73,ESE,113,0.0,2.0,35,0.00,,,0.00,0.0,WUHU216DAVISVP2,2013-08-20 04:50:00,
2013-08-19 22:00:00,89.3,58.8,29.73,ESE,113,0.0,2.0,36,0.00,,,0.00,0.0,WUHU216DAVISVP2,2013-08-20 05:00:00,
2013-08-19 22:10:00,88.7,58.3,29.72,ESE,113,1.0,4.0,36,0.00,,,0.00,0.0,WUHU216DAVISVP2,2013-08-20 05:10:00,
2013-08-19 22:20:00,88.3,58.0,29.72,ESE,113,0.0,4.0,36,0.00,,,0.00,0.0,WUHU216DAVISVP2,2013-08-20 05:20:00,
2013-08-19 22:30:00,87.6,58.1,29.72,ESE,113,2.0,4.0,37,0.00,,,0.00,0.0,WUHU216DAVISVP2,2013-08-20 05:30:00,
2013-08-19 22:40:00,87.0,59.0,29.73,ESE,113,1.0,4.0,39,0.00,,,0.00,0.0,WUHU216DAVISVP2,2013-08-20 05:40:00,
2013-08-19 22:50:00,87.0,58.3,29.73,SW,225,1.0,4.0,38,0.00,,,0.00,0.0,WUHU216DAVISVP2,2013-08-20 05:50:00,
2013-08-19 23:00:00,85.8,60.1,29.74,NNW,338,1.0,6.0,42,0.00,,,0.00,0.0,WUHU216DAVISVP2,2013-08-20 06:00:00,
2013-08-19 23:10:00,84.0,61.0,29.74,North,0,1.0,6.0,46,0.00,,,0.00,0.0,WUHU216DAVISVP2,2013-08-20 06:10:00,
2013-08-19 23:20:00,82.7,61.0,29.75,North,0,0.0,4.0,48,0.00,,,0.00,0.0,WUHU216DAVISVP2,2013-08-20 06:20:00,
2013-08-19 23:30:00,81.8,60.8,29.75,North,0,1.0,3.0,49,0.00,,,0.00,0.0,WUHU216DAVISVP2,2013-08-20 06:30:00,
2013-08-19 23:40:00,82.2,60.6,29.74,North,0,1.0,3.0,48,0.00,,,0.00,0.0,WUHU216DAVISVP2,2013-08-20 06:40:00,
2013-08-19 23:50:00,82.3,60.1,29.74,North,0,1.0,3.0,47,0.00,,,0.00,0.0,WUHU216DAVISVP2,2013-08-20 06:50:00,